Time;durP1;ratioP1;P1;durP2;ratioP2;P2;SDS_P1;SDS_P2;PMS_P1;PMS_P2;Temp;Humidity;BMP_temperature;BMP_pressure;BME280_temperature;BME280_humidity;BME280_pressure;Samples;Min_cycle;Max_cycle;Signal;HPM_P1;HPM_P2
2024/04/02 00:01:56;;;;;;;2.30;1.90;;;12.10;99.90;;;;;;5094607;28;20457;-61
2024/04/02 00:04:21;;;;;;;1.83;1.57;;;12.20;99.90;;;;;;5094333;28;20453;-61
2024/04/02 00:06:48;;;;;;;1.53;1.43;;;12.20;99.90;;;;;;5094256;28;20870;-61
2024/04/02 00:09:14;;;;;;;2.20;2.10;;;12.20;99.90;;;;;;5093742;28;20184;-62
2024/04/02 00:11:40;;;;;;;1.90;1.70;;;12.30;99.90;;;;;;5094237;28;20508;-61
2024/04/02 00:14:06;;;;;;;1.80;1.70;;;12.30;99.90;;;;;;5094124;28;20473;-61
2024/04/02 00:16:34;;;;;;;1.43;1.33;;;12.30;99.90;;;;;;5094119;28;20549;-61
2024/04/02 00:18:59;;;;;;;1.53;1.43;;;12.20;99.90;;;;;;5093887;28;20185;-61
2024/04/02 00:21:26;;;;;;;1.80;1.33;;;12.30;99.90;;;;;;5093944;28;20821;-61
2024/04/02 00:23:51;;;;;;;1.60;1.50;;;12.30;99.90;;;;;;5093830;28;20184;-61
2024/04/02 00:26:18;;;;;;;1.50;1.40;;;12.30;99.90;;;;;;5094132;28;20541;-61
2024/04/02 00:28:43;;;;;;;1.50;1.40;;;12.30;99.90;;;;;;5093919;28;20648;-61
2024/04/02 00:31:15;;;;;;;1.30;1.20;;;12.30;99.90;;;;;;5093675;28;20542;-61
2024/04/02 00:33:42;;;;;;;1.47;1.37;;;12.40;99.90;;;;;;5093651;28;20216;-61
2024/04/02 00:36:09;;;;;;;0.90;0.87;;;12.30;99.90;;;;;;5093900;28;20469;-61
2024/04/02 00:38:34;;;;;;;1.33;1.23;;;12.40;99.90;;;;;;5093527;28;20438;-61
2024/04/02 00:41:01;;;;;;;3.73;1.33;;;12.30;99.90;;;;;;5093801;28;20529;-61
2024/04/02 00:43:27;;;;;;;1.40;1.30;;;12.30;99.90;;;;;;5093690;28;20210;-61
2024/04/02 00:45:54;;;;;;;3.10;1.00;;;12.30;99.90;;;;;;5093573;28;20565;-61
2024/04/02 00:48:20;;;;;;;2.80;1.33;;;12.30;99.90;;;;;;5093589;28;21003;-61
2024/04/02 00:50:48;;;;;;;1.33;1.13;;;12.30;99.90;;;;;;5093391;28;20457;-61
2024/04/02 00:53:15;;;;;;;2.40;1.40;;;12.30;99.90;;;;;;5093311;28;20542;-61
2024/04/02 00:55:43;;;;;;;2.10;1.00;;;12.30;99.90;;;;;;5093471;28;20477;-61
2024/04/02 00:58:09;;;;;;;1.00;0.90;;;12.40;99.90;;;;;;5093381;28;20461;-62
2024/04/02 01:00:36;;;;;;;3.67;1.30;;;12.40;99.90;;;;;;5093420;28;20836;-61
2024/04/02 01:03:02;;;;;;;1.50;1.27;;;12.40;99.90;;;;;;5093321;28;20442;-61
2024/04/02 01:05:28;;;;;;;3.30;1.00;;;12.40;99.90;;;;;;5093115;28;20943;-61
2024/04/02 01:07:55;;;;;;;2.27;1.10;;;12.50;99.90;;;;;;5093404;28;20275;-61
2024/04/02 01:10:22;;;;;;;1.33;0.97;;;12.50;99.90;;;;;;5093359;28;20504;-61
2024/04/02 01:12:47;;;;;;;1.37;1.27;;;12.50;99.90;;;;;;5093267;28;20442;-61
2024/04/02 01:15:20;;;;;;;2.93;1.20;;;12.60;99.90;;;;;;5093121;28;20557;-61
2024/04/02 01:17:45;;;;;;;1.53;1.43;;;12.50;99.90;;;;;;5093163;28;20189;-61
2024/04/02 01:20:12;;;;;;;1.63;1.20;;;12.50;99.90;;;;;;5092806;28;20883;-61
2024/04/02 01:22:37;;;;;;;1.97;1.23;;;12.50;99.90;;;;;;5092677;28;20275;-61
2024/04/02 01:25:08;;;;;;;1.33;1.13;;;12.50;99.90;;;;;;5093173;28;20530;-61
2024/04/02 01:27:35;;;;;;;1.10;1.10;;;12.40;99.90;;;;;;5093283;28;20676;-61
2024/04/02 01:30:01;;;;;;;3.90;1.30;;;12.40;99.90;;;;;;5093006;28;20485;-61
2024/04/02 01:32:27;;;;;;;1.50;1.40;;;12.40;99.90;;;;;;5093191;28;20484;-61
2024/04/02 01:34:56;;;;;;;1.80;1.40;;;12.20;99.90;;;;;;5092720;28;20474;-61
2024/04/02 01:37:21;;;;;;;1.70;1.50;;;12.20;99.90;;;;;;5093028;28;20279;-61
2024/04/02 01:39:48;;;;;;;2.50;1.23;;;12.20;99.90;;;;;;5092993;28;20490;-61
2024/04/02 01:42:13;;;;;;;1.53;1.43;;;12.20;99.90;;;;;;5093019;28;20188;-61
2024/04/02 01:44:41;;;;;;;1.90;1.30;;;12.30;99.90;;;;;;5092780;28;20557;-61
2024/04/02 01:47:07;;;;;;;3.37;1.20;;;12.20;99.90;;;;;;5092599;28;20220;-61
2024/04/02 01:49:33;;;;;;;2.03;1.50;;;12.20;99.90;;;;;;5093051;28;20861;-61
2024/04/02 01:51:59;;;;;;;1.70;1.60;;;12.10;99.90;;;;;;5093078;28;20188;-61
2024/04/02 01:54:26;;;;;;;1.63;1.53;;;12.20;99.90;;;;;;5092875;28;20878;-61
2024/04/02 01:56:52;;;;;;;2.40;1.30;;;12.20;99.90;;;;;;5092791;28;20551;-61
2024/04/02 01:59:18;;;;;;;1.60;1.50;;;12.20;99.90;;;;;;5092707;28;20470;-61
2024/04/02 02:01:45;;;;;;;1.37;1.13;;;12.10;99.90;;;;;;5092612;28;20493;-62
2024/04/02 02:04:11;;;;;;;2.40;1.33;;;12.10;99.90;;;;;;5092878;28;20275;-61
2024/04/02 02:06:37;;;;;;;1.50;1.40;;;12.00;99.90;;;;;;5092791;28;20538;-61
2024/04/02 02:09:03;;;;;;;1.33;1.23;;;12.00;99.90;;;;;;5093008;28;20195;-61
2024/04/02 02:11:30;;;;;;;1.40;1.30;;;11.90;99.90;;;;;;5092664;28;20545;-61
2024/04/02 02:13:56;;;;;;;1.33;1.23;;;11.90;99.90;;;;;;5092623;28;20719;-61
2024/04/02 02:16:23;;;;;;;1.80;1.40;;;11.90;99.90;;;;;;5092334;28;20522;-61
2024/04/02 02:18:50;;;;;;;1.33;1.07;;;11.80;99.90;;;;;;5092720;28;20956;-61
2024/04/02 02:21:16;;;;;;;1.53;1.40;;;11.80;99.90;;;;;;5092608;28;20450;-61
2024/04/02 02:23:45;;;;;;;1.23;1.13;;;11.80;99.90;;;;;;5092793;28;20995;-61
2024/04/02 02:26:12;;;;;;;1.30;1.20;;;11.70;99.90;;;;;;5092523;28;20458;-61
2024/04/02 02:28:37;;;;;;;1.77;1.10;;;11.70;99.90;;;;;;5092408;28;20881;-61
2024/04/02 02:31:04;;;;;;;2.70;1.40;;;11.80;99.90;;;;;;5092346;28;20478;-61
2024/04/02 02:33:29;;;;;;;1.70;1.03;;;11.80;99.90;;;;;;5095263;28;20546;-61
2024/04/02 02:35:57;;;;;;;1.10;1.00;;;11.70;99.90;;;;;;5096033;28;20577;-61
2024/04/02 02:38:23;;;;;;;1.33;0.90;;;11.70;99.90;;;;;;5096069;28;20612;-61
2024/04/02 02:40:49;;;;;;;1.30;1.20;;;11.60;99.90;;;;;;5095933;28;20533;-61
2024/04/02 02:43:15;;;;;;;2.50;1.00;;;11.50;99.90;;;;;;5095894;28;20192;-61
2024/04/02 02:45:50;;;;;;;1.40;1.30;;;11.60;99.90;;;;;;5095383;28;20528;-61
2024/04/02 02:48:15;;;;;;;1.67;1.07;;;11.60;99.90;;;;;;5095918;28;20192;-61
2024/04/02 02:50:42;;;;;;;1.63;1.07;;;11.60;99.90;;;;;;5095801;28;20924;-61
2024/04/02 02:53:09;;;;;;;3.60;1.10;;;11.50;99.90;;;;;;5095738;28;20195;-61
2024/04/02 02:55:35;;;;;;;1.57;1.23;;;11.50;99.90;;;;;;5095473;28;20478;-61
2024/04/02 02:58:01;;;;;;;1.30;1.00;;;11.40;99.90;;;;;;5095518;28;20529;-61
2024/04/02 03:00:27;;;;;;;1.33;1.07;;;11.40;99.90;;;;;;5095743;28;20475;-61
2024/04/02 03:02:53;;;;;;;1.40;1.30;;;11.50;99.90;;;;;;5095412;28;20664;-61
2024/04/02 03:05:20;;;;;;;1.97;1.10;;;11.40;99.90;;;;;;5095503;28;20497;-61
2024/04/02 03:07:45;;;;;;;3.73;0.90;;;11.30;99.90;;;;;;5095626;28;20663;-61
2024/04/02 03:10:13;;;;;;;1.40;1.30;;;11.30;99.90;;;;;;5095371;28;20546;-61
2024/04/02 03:12:39;;;;;;;1.10;0.90;;;11.30;99.90;;;;;;5095215;28;20191;-61
2024/04/02 03:15:06;;;;;;;1.07;0.97;;;11.40;99.90;;;;;;5095304;28;20561;-61
2024/04/02 03:17:31;;;;;;;1.30;1.20;;;11.30;99.90;;;;;;5095321;28;20611;-61
2024/04/02 03:19:58;;;;;;;1.10;1.00;;;11.30;99.90;;;;;;5095264;28;20986;-61
2024/04/02 03:22:23;;;;;;;1.30;1.00;;;11.30;99.90;;;;;;5095203;28;20270;-61
2024/04/02 03:24:51;;;;;;;1.23;1.13;;;11.20;99.90;;;;;;5095064;28;20542;-61
2024/04/02 03:27:18;;;;;;;1.27;1.17;;;11.10;99.90;;;;;;5094888;28;20284;-61
2024/04/02 03:29:45;;;;;;;1.23;1.13;;;11.10;99.90;;;;;;5095084;28;20450;-61
2024/04/02 03:32:10;;;;;;;1.37;1.20;;;11.10;99.90;;;;;;5094945;28;20442;-61
2024/04/02 03:34:37;;;;;;;5.97;1.30;;;11.10;99.90;;;;;;5094804;28;20569;-61
2024/04/02 03:37:03;;;;;;;1.13;1.10;;;11.10;99.90;;;;;;5094827;28;20191;-61
2024/04/02 03:39:29;;;;;;;1.50;1.03;;;11.10;99.90;;;;;;5094771;28;20534;-61
2024/04/02 03:41:56;;;;;;;1.00;0.90;;;11.00;99.90;;;;;;5095075;28;20550;-61
2024/04/02 03:44:24;;;;;;;1.23;1.00;;;11.10;99.90;;;;;;5094169;28;20200;-61
2024/04/02 03:46:50;;;;;;;1.30;1.20;;;11.10;99.90;;;;;;5094441;28;20477;-61
2024/04/02 03:49:16;;;;;;;1.00;0.90;;;11.00;99.90;;;;;;5094653;28;20537;-61
2024/04/02 03:51:42;;;;;;;2.30;1.70;;;11.10;99.90;;;;;;5094585;28;20551;-61
2024/04/02 03:54:08;;;;;;;2.57;1.50;;;11.10;99.90;;;;;;5094416;28;20525;-61
2024/04/02 03:56:34;;;;;;;3.00;1.27;;;11.10;99.90;;;;;;5094262;28;20239;-61
2024/04/02 03:59:01;;;;;;;1.37;1.27;;;11.10;99.90;;;;;;5094438;28;20454;-61
2024/04/02 04:01:27;;;;;;;1.63;1.27;;;11.10;99.90;;;;;;5094187;28;20735;-61
2024/04/02 04:03:54;;;;;;;1.23;1.13;;;11.00;99.90;;;;;;5094438;28;20959;-61
2024/04/02 04:06:19;;;;;;;1.90;1.20;;;11.00;99.90;;;;;;5094293;28;20794;-61
2024/04/02 04:08:46;;;;;;;1.60;1.50;;;11.10;99.90;;;;;;5094152;28;20541;-61
2024/04/02 04:11:11;;;;;;;1.30;1.20;;;11.00;99.90;;;;;;5094315;28;20195;-61
2024/04/02 04:13:38;;;;;;;1.90;1.37;;;11.00;99.90;;;;;;5094294;28;20537;-61
2024/04/02 04:16:04;;;;;;;1.70;1.60;;;11.00;99.90;;;;;;5094349;28;20220;-61
2024/04/02 04:18:32;;;;;;;1.43;1.33;;;11.10;99.90;;;;;;5094063;28;20542;-61
2024/04/02 04:20:59;;;;;;;1.20;1.10;;;11.20;99.90;;;;;;5094208;28;20442;-61
2024/04/02 04:23:26;;;;;;;1.23;1.13;;;11.20;99.90;;;;;;5093773;28;21042;-61
2024/04/02 04:25:56;;;;;;;2.00;1.40;;;11.20;99.90;;;;;;5094035;28;20505;-61
2024/04/02 04:28:23;;;;;;;1.93;1.57;;;11.20;99.90;;;;;;5093890;28;20463;-61
2024/04/02 04:30:53;;;;;;;4.70;1.50;;;11.10;99.90;;;;;;5093863;28;20537;-61
2024/04/02 04:33:19;;;;;;;1.63;1.50;;;11.20;99.90;;;;;;5093830;28;20459;-61
2024/04/02 04:35:47;;;;;;;2.57;1.60;;;11.20;99.90;;;;;;5093613;28;20489;-61
2024/04/02 04:38:13;;;;;;;1.40;1.30;;;11.10;99.90;;;;;;5093693;28;20461;-61
2024/04/02 04:40:39;;;;;;;2.33;1.87;;;11.00;99.90;;;;;;5093710;28;20593;-61
2024/04/02 04:43:06;;;;;;;3.70;1.70;;;11.00;99.90;;;;;;5093672;28;20454;-61
2024/04/02 04:45:31;;;;;;;2.23;1.40;;;10.90;99.90;;;;;;5093405;28;20446;-61
2024/04/02 04:47:59;;;;;;;4.27;1.70;;;10.90;99.90;;;;;;5093446;28;20545;-61
2024/04/02 04:50:25;;;;;;;1.83;1.60;;;11.00;99.90;;;;;;5093439;28;20608;-61
2024/04/02 04:52:53;;;;;;;4.97;1.87;;;10.90;99.90;;;;;;5093303;28;20457;-61
2024/04/02 04:55:19;;;;;;;1.53;1.43;;;11.00;99.90;;;;;;5092945;28;20483;-61
2024/04/02 04:57:45;;;;;;;4.00;1.50;;;10.90;99.90;;;;;;5092823;28;20546;-61
2024/04/02 05:00:12;;;;;;;2.30;1.40;;;11.00;99.90;;;;;;5093369;28;20621;-61
2024/04/02 05:02:38;;;;;;;1.97;1.83;;;11.00;99.90;;;;;;5093177;28;20455;-61
2024/04/02 05:05:05;;;;;;;2.27;1.50;;;11.10;99.90;;;;;;5093129;28;20482;-61
2024/04/02 05:07:32;;;;;;;2.67;1.77;;;11.20;99.90;;;;;;5093375;28;20461;-61
2024/04/02 05:09:59;;;;;;;2.93;1.80;;;11.10;99.90;;;;;;5093312;28;20443;-61
2024/04/02 05:12:26;;;;;;;2.37;1.50;;;11.10;99.90;;;;;;5093161;28;20458;-61
2024/04/02 05:14:51;;;;;;;2.20;1.47;;;11.20;99.90;;;;;;5093393;28;20530;-61
2024/04/02 05:17:18;;;;;;;1.50;1.30;;;11.30;99.90;;;;;;5093120;28;20554;-61
2024/04/02 05:19:44;;;;;;;1.80;1.70;;;11.30;99.90;;;;;;5093249;28;20608;-61
2024/04/02 05:22:10;;;;;;;1.67;1.57;;;11.30;99.90;;;;;;5093155;28;20458;-61
2024/04/02 05:24:36;;;;;;;2.27;2.07;;;11.40;99.90;;;;;;5092984;28;20989;-61
2024/04/02 05:27:04;;;;;;;1.60;1.50;;;11.40;99.90;;;;;;5092918;28;20546;-61
2024/04/02 05:29:30;;;;;;;2.00;1.80;;;11.40;99.90;;;;;;5093014;28;20279;-61
2024/04/02 05:31:57;;;;;;;4.53;1.70;;;11.50;99.90;;;;;;5092909;28;20546;-61
2024/04/02 05:34:22;;;;;;;2.33;2.10;;;11.70;99.90;;;;;;5092776;28;20602;-61
2024/04/02 05:36:49;;;;;;;2.60;2.10;;;11.80;99.90;;;;;;5092924;28;20482;-61
2024/04/02 05:39:14;;;;;;;2.20;2.00;;;11.90;99.90;;;;;;5092907;28;20191;-61
2024/04/02 05:41:41;;;;;;;1.93;1.83;;;12.20;99.90;;;;;;5092808;28;20581;-61
2024/04/02 05:44:07;;;;;;;2.30;2.10;;;12.80;99.90;;;;;;5092872;28;20220;-61
2024/04/02 05:46:34;;;;;;;2.20;1.70;;;13.40;99.90;;;;;;5092560;28;20830;-61
2024/04/02 05:49:00;;;;;;;2.97;1.63;;;13.80;99.90;;;;;;5092558;28;20442;-61
2024/04/02 05:51:26;;;;;;;2.23;1.87;;;14.10;99.90;;;;;;5092810;28;20561;-61
2024/04/02 05:53:52;;;;;;;2.13;2.03;;;14.10;99.90;;;;;;5092772;28;20191;-62
2024/04/02 05:56:18;;;;;;;3.37;1.83;;;14.50;99.90;;;;;;5092638;28;20570;-61
2024/04/02 05:58:44;;;;;;;1.77;1.67;;;14.80;99.90;;;;;;5092623;28;20622;-61
2024/04/02 06:01:11;;;;;;;2.77;1.80;;;14.60;99.90;;;;;;5092669;28;20548;-61
2024/04/02 06:03:37;;;;;;;1.87;1.77;;;14.90;99.90;;;;;;5092739;28;20189;-61
2024/04/02 06:06:04;;;;;;;2.30;1.80;;;15.10;99.90;;;;;;5092641;28;20550;-61
2024/04/02 06:08:29;;;;;;;1.70;1.60;;;15.50;99.90;;;;;;5095485;28;20239;-61
2024/04/02 06:10:56;;;;;;;2.93;2.30;;;15.60;99.90;;;;;;5096334;28;20970;-61
2024/04/02 06:13:22;;;;;;;2.07;1.97;;;15.80;99.90;;;;;;5096356;28;20272;-61
2024/04/02 06:15:48;;;;;;;1.90;1.80;;;15.70;99.90;;;;;;5096124;28;21069;-62
2024/04/02 06:18:15;;;;;;;3.50;2.27;;;15.60;99.90;;;;;;5096139;28;20354;-62
2024/04/02 06:20:41;;;;;;;3.30;2.27;;;15.80;99.90;;;;;;5096324;28;20460;-61
2024/04/02 06:23:07;;;;;;;2.40;2.20;;;15.80;99.90;;;;;;5096230;28;20881;-61
2024/04/02 06:25:33;;;;;;;2.73;2.40;;;15.40;99.90;;;;;;5096087;28;20488;-61
2024/04/02 06:27:59;;;;;;;2.40;2.30;;;15.20;99.90;;;;;;5096113;28;20279;-61
2024/04/02 06:30:25;;;;;;;2.97;2.37;;;15.20;99.90;;;;;;5095879;28;20558;-61
2024/04/02 06:32:51;;;;;;;2.37;2.17;;;15.20;99.90;;;;;;5096066;28;20276;-61
2024/04/02 06:35:19;;;;;;;7.30;2.33;;;15.40;99.90;;;;;;5095961;28;20555;-61
2024/04/02 06:37:44;;;;;;;5.33;2.20;;;15.50;99.90;;;;;;5096180;28;20194;-62
2024/04/02 06:40:11;;;;;;;2.50;2.30;;;15.60;99.90;;;;;;5096177;28;20547;-61
2024/04/02 06:42:36;;;;;;;3.10;2.70;;;15.60;99.90;;;;;;5095781;28;20192;-61
2024/04/02 06:45:03;;;;;;;4.93;2.47;;;15.30;99.90;;;;;;5095487;28;20507;-62
2024/04/02 06:47:29;;;;;;;4.43;2.27;;;15.20;99.90;;;;;;5095428;28;20662;-62
2024/04/02 06:49:55;;;;;;;4.10;3.00;;;15.10;99.90;;;;;;5095701;28;20527;-61
2024/04/02 06:52:22;;;;;;;3.17;2.30;;;14.80;99.90;;;;;;5095641;28;20544;-61
2024/04/02 06:54:49;;;;;;;2.33;2.23;;;14.80;99.90;;;;;;5099329;28;20944;-61
2024/04/02 06:57:14;;;;;;;2.53;2.33;;;14.80;99.90;;;;;;5115293;28;20571;-61
2024/04/02 06:59:41;;;;;;;2.60;2.30;;;14.80;99.90;;;;;;5115294;28;20483;-62
2024/04/02 07:02:06;;;;;;;6.50;2.90;;;15.00;99.90;;;;;;5115662;28;20268;-61
2024/04/02 07:04:36;;;;;;;2.47;2.27;;;14.90;99.90;;;;;;5115247;28;21011;-63
2024/04/02 07:07:02;;;;;;;5.10;2.60;;;14.90;99.90;;;;;;5115297;28;20219;-63
2024/04/02 07:09:30;;;;;;;2.37;2.17;;;15.00;99.90;;;;;;5115231;28;20452;-62
2024/04/02 07:11:55;;;;;;;2.77;2.57;;;15.10;99.90;;;;;;5114972;28;20439;-68
2024/04/02 07:14:22;;;;;;;2.30;2.10;;;15.00;99.90;;;;;;5114931;28;20466;-63
2024/04/02 07:16:47;;;;;;;2.77;2.17;;;14.90;99.90;;;;;;5115139;28;20206;-64
2024/04/02 07:19:14;;;;;;;3.63;1.90;;;14.90;99.90;;;;;;5114125;28;20542;-64
2024/04/02 07:21:39;;;;;;;2.55;1.70;;;15.00;99.90;;;;;;5114927;28;20374;-65
2024/04/02 07:24:06;;;;;;;2.73;1.80;;;15.20;99.90;;;;;;5114824;28;20275;-64
2024/04/02 07:26:33;;;;;;;4.60;3.37;;;15.30;99.90;;;;;;5114504;28;20247;-66
2024/04/02 07:29:00;;;;;;;3.55;3.22;;;15.30;99.90;;;;;;5114010;28;20455;-64
2024/04/02 07:31:25;;;;;;;3.10;2.80;;;15.10;99.90;;;;;;5114541;28;20455;-64
2024/04/02 07:33:52;;;;;;;2.17;1.87;;;15.20;99.90;;;;;;5114640;28;20700;-66
2024/04/02 07:36:19;;;;;;;2.37;1.70;;;15.00;99.90;;;;;;5114963;28;20676;-68
2024/04/02 07:38:45;;;;;;;2.90;1.80;;;15.10;99.90;;;;;;5114764;28;20454;-62
2024/04/02 07:41:11;;;;;;;2.10;1.70;;;15.40;99.90;;;;;;5114808;28;20189;-62
2024/04/02 07:43:39;;;;;;;1.53;1.43;;;15.30;99.90;;;;;;5111457;28;20546;-62
2024/04/02 07:46:04;;;;;;;3.80;1.83;;;15.30;99.90;;;;;;5114352;28;20223;-63
2024/04/02 07:48:31;;;;;;;2.27;1.70;;;15.40;99.90;;;;;;5114521;28;20866;-61
2024/04/02 07:50:56;;;;;;;1.77;1.67;;;15.30;99.90;;;;;;5114468;28;20188;-62
2024/04/02 07:53:24;;;;;;;1.43;1.20;;;15.30;99.90;;;;;;5114306;28;21013;-63
2024/04/02 07:55:49;;;;;;;2.80;1.70;;;15.40;99.90;;;;;;5114165;28;20207;-66
2024/04/02 07:58:16;;;;;;;1.67;1.20;;;15.30;99.90;;;;;;5114639;28;20794;-65
2024/04/02 08:00:44;;;;;;;1.40;1.30;;;15.30;99.90;;;;;;5114624;28;20189;-66
2024/04/02 08:03:11;;;;;;;1.93;1.40;;;15.50;99.90;;;;;;5111679;28;20451;-65
2024/04/02 08:05:37;;;;;;;5.77;2.70;;;15.40;99.90;;;;;;5113920;28;20458;-63
2024/04/02 08:08:04;;;;;;;2.23;1.47;;;15.50;99.90;;;;;;5113956;28;20876;-63
2024/04/02 08:10:29;;;;;;;3.90;2.17;;;15.50;99.90;;;;;;5113756;28;20270;-63
2024/04/02 08:12:56;;;;;;;3.30;1.57;;;15.30;99.90;;;;;;5114034;28;20482;-64
2024/04/02 08:15:21;;;;;;;7.17;1.50;;;15.20;99.90;;;;;;5113664;28;20209;-64
2024/04/02 08:17:49;;;;;;;4.47;1.60;;;14.90;99.90;;;;;;5111099;28;20526;-67
2024/04/02 08:20:15;;;;;;;2.90;2.40;;;14.70;99.90;;;;;;5113761;28;20184;-63
2024/04/02 08:22:41;;;;;;;1.43;1.20;;;14.40;99.90;;;;;;5113965;28;20882;-67
2024/04/02 08:25:07;;;;;;;2.90;1.50;;;14.50;99.90;;;;;;5110831;28;20276;-66
2024/04/02 08:27:33;;;;;;;3.40;1.70;;;14.50;99.90;;;;;;5113755;28;21017;-66
2024/04/02 08:29:59;;;;;;;1.60;1.40;;;14.40;99.90;;;;;;5113400;28;20267;-64
2024/04/02 08:32:25;;;;;;;4.10;1.77;;;14.40;99.90;;;;;;5113552;28;20553;-63
2024/04/02 08:34:52;;;;;;;4.20;1.80;;;14.50;99.90;;;;;;5113523;28;20632;-67
2024/04/02 08:37:19;;;;;;;1.70;1.37;;;14.40;99.90;;;;;;5113729;28;20482;-64
2024/04/02 08:39:44;;;;;;;2.53;1.50;;;14.40;99.90;;;;;;5113753;28;20444;-67
2024/04/02 08:42:11;;;;;;;4.83;1.27;;;14.40;99.90;;;;;;5113884;28;20797;-67
2024/04/02 08:44:36;;;;;;;4.53;1.40;;;14.40;99.90;;;;;;5113568;28;20196;-65
2024/04/02 08:47:03;;;;;;;3.77;1.23;;;14.60;99.90;;;;;;5113068;28;20928;-67
2024/04/02 08:49:30;;;;;;;2.90;1.30;;;14.70;99.90;;;;;;5113440;28;20614;-64
2024/04/02 08:51:59;;;;;;;2.70;1.17;;;14.50;99.90;;;;;;5112965;28;20458;-65
2024/04/02 08:54:26;;;;;;;1.23;1.13;;;14.60;99.90;;;;;;5113450;28;20444;-65
2024/04/02 08:56:54;;;;;;;2.23;1.43;;;14.70;99.90;;;;;;5113487;28;20536;-63
2024/04/02 08:59:21;;;;;;;2.83;1.73;;;14.80;99.90;;;;;;5113551;28;20442;-65
2024/04/02 09:01:48;;;;;;;3.53;1.20;;;14.90;99.90;;;;;;5113387;28;20492;-63
2024/04/02 09:04:13;;;;;;;1.70;1.03;;;15.10;99.90;;;;;;5113359;28;20537;-62
2024/04/02 09:06:40;;;;;;;4.53;1.10;;;15.50;99.90;;;;;;5113362;28;20896;-64
2024/04/02 09:09:19;;;;;;;2.60;1.10;;;15.50;99.90;;;;;;5113298;28;20190;-64
2024/04/02 09:11:46;;;;;;;1.43;1.10;;;15.50;99.90;;;;;;5113494;28;20459;-63
2024/04/02 09:14:11;;;;;;;3.20;1.17;;;15.50;99.90;;;;;;5113083;28;20478;-64
2024/04/02 09:16:38;;;;;;;10.83;1.37;;;15.60;99.90;;;;;;5113296;28;20512;-64
2024/04/02 09:19:06;;;;;;;2.07;1.00;;;15.70;99.90;;;;;;5113119;28;20189;-64
2024/04/02 09:21:32;;;;;;;3.93;1.10;;;15.60;99.90;;;;;;5113263;28;20551;-64
2024/04/02 09:23:58;;;;;;;2.27;1.00;;;15.30;99.90;;;;;;5113437;28;20541;-64
2024/04/02 09:26:26;;;;;;;1.67;1.03;;;15.10;99.90;;;;;;5113277;28;20482;-63
2024/04/02 09:28:52;;;;;;;1.77;1.00;;;14.90;99.90;;;;;;5113013;28;20612;-63
2024/04/02 09:31:18;;;;;;;1.40;1.00;;;14.80;99.90;;;;;;5113095;28;20479;-63
2024/04/02 09:33:47;;;;;;;2.03;1.20;;;14.70;99.90;;;;;;5113105;28;20185;-64
2024/04/02 09:36:38;;;;;;;3.63;1.10;;;14.90;99.90;;;;;;5113218;28;20481;-64
2024/04/02 09:39:06;;;;;;;1.10;0.90;;;15.30;99.90;;;;;;5113043;28;20478;-64
2024/04/02 09:41:36;;;;;;;1.30;1.00;;;15.70;99.90;;;;;;5113006;28;20462;-63
2024/04/02 09:44:03;;;;;;;2.90;1.10;;;15.80;99.90;;;;;;5117149;28;20665;-64
2024/04/02 09:46:31;;;;;;;5.93;1.50;;;16.00;99.90;;;;;;5115984;28;20885;-63
2024/04/02 09:49:00;;;;;;;2.67;1.57;;;16.00;99.90;;;;;;5117236;28;20187;-63
2024/04/02 09:51:27;;;;;;;1.53;1.10;;;15.80;99.90;;;;;;5116963;28;20876;-64
2024/04/02 09:53:54;;;;;;;6.30;1.03;;;16.00;99.90;;;;;;5116626;28;20519;-63
2024/04/02 09:56:21;;;;;;;2.10;1.13;;;16.00;99.90;;;;;;5116580;28;20472;-63
2024/04/02 09:58:48;;;;;;;2.53;0.90;;;15.80;99.90;;;;;;5116718;28;20448;-63
2024/04/02 10:01:20;;;;;;;2.20;1.00;;;15.90;99.90;;;;;;5117057;28;20503;-63
2024/04/02 10:03:47;;;;;;;1.27;0.93;;;16.00;99.90;;;;;;5116901;28;20525;-65
2024/04/02 10:06:14;;;;;;;1.53;0.80;;;16.10;99.90;;;;;;5116773;28;20870;-63
2024/04/02 10:08:40;;;;;;;1.20;1.10;;;16.00;99.90;;;;;;5115958;28;20436;-61
2024/04/02 10:11:08;;;;;;;3.30;1.00;;;16.00;99.90;;;;;;5116485;28;20540;-61
2024/04/02 10:13:34;;;;;;;1.47;1.10;;;16.00;99.90;;;;;;5116356;28;20204;-61
2024/04/02 10:16:06;;;;;;;1.83;0.90;;;15.90;99.90;;;;;;5116597;28;20564;-61
2024/04/02 10:18:31;;;;;;;1.97;1.00;;;16.00;99.90;;;;;;5116783;28;20444;-61
2024/04/02 10:20:59;;;;;;;1.40;1.30;;;15.80;99.90;;;;;;5116593;28;20531;-65
2024/04/02 10:23:25;;;;;;;2.90;1.53;;;15.60;99.90;;;;;;5116473;28;20193;-64
2024/04/02 10:25:53;;;;;;;3.40;1.00;;;15.60;99.90;;;;;;5116255;28;20540;-63
2024/04/02 10:28:25;;;;;;;2.97;1.00;;;15.70;99.90;;;;;;5115271;28;20186;-64
2024/04/02 10:30:52;;;;;;;9.10;1.70;;;15.70;99.90;;;;;;5113173;28;20449;-64
2024/04/02 10:33:20;;;;;;;1.63;1.00;;;15.80;99.90;;;;;;5115933;28;20447;-60
2024/04/02 10:35:46;;;;;;;1.57;1.13;;;15.60;99.90;;;;;;5115444;28;20478;-60
2024/04/02 10:38:12;;;;;;;1.97;1.20;;;15.50;99.90;;;;;;5115560;27;20514;-60
2024/04/02 10:40:39;;;;;;;0.80;0.73;;;15.40;99.90;;;;;;5115672;28;20444;-60
2024/04/02 10:43:05;;;;;;;1.40;1.00;;;15.40;99.90;;;;;;5115730;28;20453;-61
2024/04/02 10:45:32;;;;;;;3.50;1.10;;;15.30;99.90;;;;;;5115621;28;20533;-63
2024/04/02 10:47:57;;;;;;;2.17;0.90;;;15.30;99.90;;;;;;5115879;28;20220;-61
2024/04/02 10:50:26;;;;;;;5.03;0.90;;;15.30;99.90;;;;;;5115442;28;20500;-61
2024/04/02 10:52:52;;;;;;;2.63;1.10;;;15.30;99.90;;;;;;5115800;28;20887;-61
2024/04/02 10:55:19;;;;;;;3.00;1.00;;;15.40;99.90;;;;;;5115803;28;20453;-64
2024/04/02 10:57:44;;;;;;;1.30;1.00;;;15.70;99.90;;;;;;5115927;28;20484;-64
2024/04/02 11:00:12;;;;;;;3.80;0.90;;;15.80;99.90;;;;;;5115769;28;20544;-65
2024/04/02 11:02:39;;;;;;;1.10;0.90;;;16.00;99.90;;;;;;5115763;28;20231;-64
2024/04/02 11:05:11;;;;;;;3.37;1.07;;;16.00;99.90;;;;;;5115785;28;20491;-66
2024/04/02 11:07:38;;;;;;;3.10;2.27;;;15.90;99.90;;;;;;5115559;28;20525;-62
2024/04/02 11:10:05;;;;;;;1.30;0.90;;;15.70;99.90;;;;;;5115739;28;20511;-64
2024/04/02 11:12:31;;;;;;;1.00;0.90;;;15.60;99.90;;;;;;5115715;28;20447;-66
2024/04/02 11:14:58;;;;;;;1.93;1.03;;;15.50;99.90;;;;;;5115609;28;20531;-64
2024/04/02 11:17:24;;;;;;;2.10;1.20;;;15.40;99.90;;;;;;5115558;28;20241;-63
2024/04/02 11:19:51;;;;;;;1.47;1.00;;;15.20;99.90;;;;;;5115358;28;20487;-64
2024/04/02 11:25:11;;;;;;;1.33;0.90;;;15.10;99.90;;;;;;5115453;28;20847;-64
2024/04/02 11:27:38;;;;;;;2.70;1.33;;;15.10;99.90;;;;;;5115041;28;20439;-63
2024/04/02 11:30:05;;;;;;;2.03;1.40;;;15.20;99.90;;;;;;5115193;28;20858;-63
2024/04/02 11:32:31;;;;;;;2.93;1.30;;;15.20;99.90;;;;;;5115127;28;20543;-62
2024/04/02 11:34:59;;;;;;;1.83;1.40;;;15.20;99.90;;;;;;5115207;27;20552;-62
2024/04/02 11:37:25;;;;;;;1.87;0.93;;;15.20;99.90;;;;;;5114844;28;20260;-64
2024/04/02 11:39:52;;;;;;;1.83;1.10;;;15.50;99.90;;;;;;5114989;28;20484;-63
2024/04/02 11:42:20;;;;;;;1.40;1.13;;;15.70;99.90;;;;;;5115015;28;20506;-64
2024/04/02 11:44:46;;;;;;;2.50;1.37;;;15.80;99.90;;;;;;5114724;28;20463;-61
2024/04/02 11:47:13;;;;;;;2.07;1.37;;;15.80;99.90;;;;;;5114764;28;20567;-61
2024/04/02 11:49:40;;;;;;;4.30;1.60;;;15.70;99.90;;;;;;5114852;28;20453;-62
2024/04/02 11:52:05;;;;;;;2.10;0.93;;;15.50;99.90;;;;;;5114512;28;20444;-61
2024/04/02 11:54:32;;;;;;;2.57;1.27;;;15.50;99.90;;;;;;5114753;28;20947;-61
2024/04/02 12:00:07;;;;;;;2.70;0.90;;;15.20;99.90;;;;;;5114657;28;20505;-62
2024/04/02 12:02:34;;;;;;;2.10;1.00;;;15.20;99.90;;;;;;5114634;28;20440;-62
2024/04/02 12:05:00;;;;;;;3.37;1.10;;;15.20;99.90;;;;;;5113389;28;20957;-62
2024/04/02 12:07:28;;;;;;;1.83;0.87;;;15.20;99.90;;;;;;5114602;28;20452;-63
2024/04/02 12:09:55;;;;;;;9.60;5.40;;;15.10;99.90;;;;;;5114305;28;20439;-62
2024/04/02 12:12:21;;;;;;;2.40;1.03;;;15.10;99.90;;;;;;5114111;28;20478;-62
2024/04/02 12:14:48;;;;;;;2.73;1.13;;;15.20;99.90;;;;;;5113750;28;20543;-62
2024/04/02 12:17:15;;;;;;;1.93;1.47;;;15.20;99.90;;;;;;5112029;28;20487;-62
2024/04/02 12:19:40;;;;;;;2.23;1.30;;;15.20;99.90;;;;;;5112173;28;20452;-62
2024/04/02 12:22:09;;;;;;;2.00;1.00;;;15.30;99.90;;;;;;5112159;28;20539;-62
2024/04/02 12:24:34;;;;;;;2.60;1.00;;;15.30;99.90;;;;;;5111909;28;20189;-62
2024/04/02 12:27:01;;;;;;;2.37;1.10;;;15.40;99.90;;;;;;5111914;28;20463;-62
2024/04/02 12:29:26;;;;;;;2.50;1.17;;;15.40;99.90;;;;;;5112011;28;20190;-62
2024/04/02 12:31:54;;;;;;;2.17;1.27;;;15.40;99.90;;;;;;5113752;28;20531;-62
2024/04/02 12:34:22;;;;;;;1.93;0.90;;;15.40;99.90;;;;;;5113584;28;20185;-63
2024/04/02 12:36:49;;;;;;;4.23;3.87;;;15.50;99.90;;;;;;5113190;28;21060;-62
2024/04/02 12:39:14;;;;;;;4.63;3.33;;;15.60;99.90;;;;;;5113426;28;20451;-62
2024/04/02 12:41:41;;;;;;;4.30;3.30;;;15.90;99.90;;;;;;5113981;28;20543;-62
2024/04/02 12:44:07;;;;;;;1.00;0.80;;;16.00;99.90;;;;;;5113954;28;20278;-62
2024/04/02 12:46:34;;;;;;;2.03;1.53;;;16.20;99.90;;;;;;5113593;28;20575;-62
2024/04/02 12:49:05;;;;;;;3.80;1.20;;;16.20;99.90;;;;;;5113303;28;20445;-62
2024/04/02 12:51:32;;;;;;;1.33;1.17;;;16.30;99.90;;;;;;5113200;28;20451;-62